sensor_id;sensor_type;location;lat;lon;timestamp;pressure;altitude;pressure_sealevel;temperature;humidity
67842;BME280;54642;59.126;37.876;2024-01-15T00:01:04;97951.00;;;-13.83;72.80
67842;BME280;54642;59.126;37.876;2024-01-15T00:03:30;97951.41;;;-13.75;72.92
67842;BME280;54642;59.126;37.876;2024-01-15T00:05:56;97900.72;;;-14.07;72.76
67842;BME280;54642;59.126;37.876;2024-01-15T00:08:22;97925.78;;;-13.89;73.27
67842;BME280;54642;59.126;37.876;2024-01-15T00:10:48;97956.75;;;-13.69;73.31
67842;BME280;54642;59.126;37.876;2024-01-15T00:13:14;97960.81;;;-13.71;73.12
67842;BME280;54642;59.126;37.876;2024-01-15T00:15:40;97937.50;;;-13.72;73.00
67842;BME280;54642;59.126;37.876;2024-01-15T00:18:06;97931.78;;;-13.71;73.20
67842;BME280;54642;59.126;37.876;2024-01-15T00:20:32;97930.47;;;-13.64;73.27
67842;BME280;54642;59.126;37.876;2024-01-15T00:22:57;97925.50;;;-13.64;73.50
67842;BME280;54642;59.126;37.876;2024-01-15T00:25:23;97938.09;;;-13.61;73.08
67842;BME280;54642;59.126;37.876;2024-01-15T00:27:49;97914.50;;;-13.68;73.22
67842;BME280;54642;59.126;37.876;2024-01-15T00:30:15;97933.22;;;-13.59;73.05
67842;BME280;54642;59.126;37.876;2024-01-15T00:32:41;97861.84;;;-14.05;73.14
67842;BME280;54642;59.126;37.876;2024-01-15T00:35:07;97874.34;;;-13.89;73.42
67842;BME280;54642;59.126;37.876;2024-01-15T00:37:33;97924.28;;;-13.56;73.51
67842;BME280;54642;59.126;37.876;2024-01-15T00:39:59;97924.28;;;-13.56;73.52
67842;BME280;54642;59.126;37.876;2024-01-15T00:42:25;97913.53;;;-13.55;73.09
67842;BME280;54642;59.126;37.876;2024-01-15T00:44:50;97915.19;;;-13.55;73.32
67842;BME280;54642;59.126;37.876;2024-01-15T00:47:18;97916.81;;;-13.56;73.47
67842;BME280;54642;59.126;37.876;2024-01-15T00:49:44;97899.97;;;-13.60;73.18
67842;BME280;54642;59.126;37.876;2024-01-15T00:52:10;97910.22;;;-13.55;73.28
67842;BME280;54642;59.126;37.876;2024-01-15T00:54:36;97901.78;;;-13.57;73.26
67842;BME280;54642;59.126;37.876;2024-01-15T00:57:02;97852.25;;;-13.83;73.15
67842;BME280;54642;59.126;37.876;2024-01-15T00:59:28;97903.91;;;-13.49;73.32
67842;BME280;54642;59.126;37.876;2024-01-15T01:01:54;97872.31;;;-13.65;73.45
67842;BME280;54642;59.126;37.876;2024-01-15T01:04:19;97893.94;;;-13.49;73.20
67842;BME280;54642;59.126;37.876;2024-01-15T01:06:45;97899.00;;;-13.47;73.52
67842;BME280;54642;59.126;37.876;2024-01-15T01:09:11;97890.69;;;-13.48;73.21
67842;BME280;54642;59.126;37.876;2024-01-15T01:11:37;97856.19;;;-13.56;73.46
67842;BME280;54642;59.126;37.876;2024-01-15T01:14:03;97849.16;;;-13.64;73.03
67842;BME280;54642;59.126;37.876;2024-01-15T01:16:29;97876.06;;;-13.41;73.31
67842;BME280;54642;59.126;37.876;2024-01-15T01:18:56;97860.16;;;-13.44;73.59
67842;BME280;54642;59.126;37.876;2024-01-15T01:21:22;97887.91;;;-13.37;73.28
67842;BME280;54642;59.126;37.876;2024-01-15T01:23:48;97863.00;;;-13.37;73.54
67842;BME280;54642;59.126;37.876;2024-01-15T01:26:17;97839.03;;;-13.50;73.19
67842;BME280;54642;59.126;37.876;2024-01-15T01:28:43;97876.53;;;-13.32;72.97
67842;BME280;54642;59.126;37.876;2024-01-15T01:31:09;97868.28;;;-13.31;73.63
67842;BME280;54642;59.126;37.876;2024-01-15T01:33:34;97840.06;;;-13.47;73.12
67842;BME280;54642;59.126;37.876;2024-01-15T01:36:00;97838.47;;;-13.46;73.54
67842;BME280;54642;59.126;37.876;2024-01-15T01:38:26;97864.31;;;-13.28;73.42
67842;BME280;54642;59.126;37.876;2024-01-15T01:40:52;97850.19;;;-13.27;73.30
67842;BME280;54642;59.126;37.876;2024-01-15T01:43:18;97827.09;;;-13.41;73.56
67842;BME280;54642;59.126;37.876;2024-01-15T01:45:43;97846.78;;;-13.29;73.39
67842;BME280;54642;59.126;37.876;2024-01-15T01:48:09;97840.22;;;-13.27;73.75
67842;BME280;54642;59.126;37.876;2024-01-15T01:50:37;97839.25;;;-13.31;73.32
67842;BME280;54642;59.126;37.876;2024-01-15T01:53:03;97830.00;;;-13.33;73.12
67842;BME280;54642;59.126;37.876;2024-01-15T01:55:31;97814.66;;;-13.41;73.06
67842;BME280;54642;59.126;37.876;2024-01-15T01:57:59;97839.56;;;-13.25;73.38
67842;BME280;54642;59.126;37.876;2024-01-15T02:00:27;97840.56;;;-13.21;73.23
67842;BME280;54642;59.126;37.876;2024-01-15T02:02:53;97826.16;;;-13.27;73.49
67842;BME280;54642;59.126;37.876;2024-01-15T02:05:19;97830.72;;;-13.18;73.12
67842;BME280;54642;59.126;37.876;2024-01-15T02:07:48;97833.22;;;-13.18;73.31
67842;BME280;54642;59.126;37.876;2024-01-15T02:10:14;97835.88;;;-13.15;73.26
67842;BME280;54642;59.126;37.876;2024-01-15T02:12:40;97814.94;;;-13.18;73.10
67842;BME280;54642;59.126;37.876;2024-01-15T02:15:06;97815.09;;;-13.15;73.32
67842;BME280;54642;59.126;37.876;2024-01-15T02:17:32;97820.38;;;-13.09;73.51
67842;BME280;54642;59.126;37.876;2024-01-15T02:19:58;97826.09;;;-13.12;73.19
67842;BME280;54642;59.126;37.876;2024-01-15T02:22:24;97774.84;;;-13.39;73.18
67842;BME280;54642;59.126;37.876;2024-01-15T02:24:50;97797.88;;;-13.27;73.44
67842;BME280;54642;59.126;37.876;2024-01-15T02:27:16;97827.19;;;-13.07;73.20
67842;BME280;54642;59.126;37.876;2024-01-15T02:29:42;97833.09;;;-13.05;73.18
67842;BME280;54642;59.126;37.876;2024-01-15T02:32:09;97818.22;;;-13.03;73.53
67842;BME280;54642;59.126;37.876;2024-01-15T02:34:34;97785.88;;;-13.18;73.15
67842;BME280;54642;59.126;37.876;2024-01-15T02:37:00;97803.66;;;-13.12;73.09
67842;BME280;54642;59.126;37.876;2024-01-15T02:39:26;97821.56;;;-13.02;73.16
67842;BME280;54642;59.126;37.876;2024-01-15T02:41:52;97810.97;;;-12.98;73.57
67842;BME280;54642;59.126;37.876;2024-01-15T02:44:18;97814.41;;;-12.96;73.40
67842;BME280;54642;59.126;37.876;2024-01-15T02:46:44;97817.84;;;-12.94;73.15
67842;BME280;54642;59.126;37.876;2024-01-15T02:49:10;97822.28;;;-12.89;73.02
67842;BME280;54642;59.126;37.876;2024-01-15T02:51:35;97813.16;;;-12.88;73.64
67842;BME280;54642;59.126;37.876;2024-01-15T02:54:01;97804.50;;;-12.95;73.34
67842;BME280;54642;59.126;37.876;2024-01-15T02:56:27;97809.09;;;-12.86;73.31
67842;BME280;54642;59.126;37.876;2024-01-15T02:58:53;97798.81;;;-12.92;73.25
67842;BME280;54642;59.126;37.876;2024-01-15T03:01:19;97796.50;;;-12.89;73.23
67842;BME280;54642;59.126;37.876;2024-01-15T03:03:45;97794.00;;;-12.89;73.33
67842;BME280;54642;59.126;37.876;2024-01-15T03:06:11;97790.78;;;-12.87;73.47
67842;BME280;54642;59.126;37.876;2024-01-15T03:08:37;97748.19;;;-13.08;73.13
67842;BME280;54642;59.126;37.876;2024-01-15T03:11:03;97792.63;;;-12.82;73.67
67842;BME280;54642;59.126;37.876;2024-01-15T03:13:29;97781.34;;;-12.76;73.51
67842;BME280;54642;59.126;37.876;2024-01-15T03:15:55;97788.06;;;-12.75;73.68
67842;BME280;54642;59.126;37.876;2024-01-15T03:18:21;97788.19;;;-12.72;73.44
67842;BME280;54642;59.126;37.876;2024-01-15T03:20:47;97770.53;;;-12.76;73.53
67842;BME280;54642;59.126;37.876;2024-01-15T03:23:13;97758.81;;;-12.77;73.56
67842;BME280;54642;59.126;37.876;2024-01-15T03:25:39;97767.47;;;-12.71;73.45
67842;BME280;54642;59.126;37.876;2024-01-15T03:28:04;97760.13;;;-12.84;73.59
67842;BME280;54642;59.126;37.876;2024-01-15T03:30:30;97728.28;;;-12.90;73.41
67842;BME280;54642;59.126;37.876;2024-01-15T03:32:56;97730.84;;;-12.88;73.36
67842;BME280;54642;59.126;37.876;2024-01-15T03:35:22;97740.34;;;-12.81;73.66
67842;BME280;54642;59.126;37.876;2024-01-15T03:37:48;97766.97;;;-12.63;73.73
67842;BME280;54642;59.126;37.876;2024-01-15T03:40:14;97742.19;;;-12.77;73.78
67842;BME280;54642;59.126;37.876;2024-01-15T03:42:40;97754.44;;;-12.65;73.91
67842;BME280;54642;59.126;37.876;2024-01-15T03:45:06;97763.16;;;-12.57;73.63
67842;BME280;54642;59.126;37.876;2024-01-15T03:47:32;97689.59;;;-12.99;73.46
67842;BME280;54642;59.126;37.876;2024-01-15T03:49:57;97735.81;;;-12.72;73.34
67842;BME280;54642;59.126;37.876;2024-01-15T03:52:23;97748.94;;;-12.58;73.39
67842;BME280;54642;59.126;37.876;2024-01-15T03:54:49;97730.22;;;-12.68;73.53
67842;BME280;54642;59.126;37.876;2024-01-15T03:57:15;97739.81;;;-12.57;73.42
67842;BME280;54642;59.126;37.876;2024-01-15T03:59:41;97750.09;;;-12.51;73.93
67842;BME280;54642;59.126;37.876;2024-01-15T04:02:07;97753.53;;;-12.49;73.84
67842;BME280;54642;59.126;37.876;2024-01-15T04:04:33;97740.78;;;-12.55;73.55
67842;BME280;54642;59.126;37.876;2024-01-15T04:06:59;97739.63;;;-12.44;73.89
67842;BME280;54642;59.126;37.876;2024-01-15T04:09:24;97739.00;;;-12.40;73.76
67842;BME280;54642;59.126;37.876;2024-01-15T04:11:50;97729.91;;;-12.56;73.60
67842;BME280;54642;59.126;37.876;2024-01-15T04:14:16;97730.59;;;-12.42;73.54
67842;BME280;54642;59.126;37.876;2024-01-15T04:16:42;97729.16;;;-12.37;73.68
67842;BME280;54642;59.126;37.876;2024-01-15T04:19:08;97738.50;;;-12.33;73.57
67842;BME280;54642;59.126;37.876;2024-01-15T04:21:34;97719.38;;;-12.32;73.57
67842;BME280;54642;59.126;37.876;2024-01-15T04:23:59;97724.38;;;-12.32;73.82
67842;BME280;54642;59.126;37.876;2024-01-15T04:26:25;97726.81;;;-12.34;73.45
67842;BME280;54642;59.126;37.876;2024-01-15T04:28:51;97724.53;;;-12.29;74.00
67842;BME280;54642;59.126;37.876;2024-01-15T04:31:24;97684.66;;;-12.45;73.50
67842;BME280;54642;59.126;37.876;2024-01-15T04:33:50;97695.81;;;-12.39;73.87
67842;BME280;54642;59.126;37.876;2024-01-15T04:36:16;97709.34;;;-12.34;73.67
67842;BME280;54642;59.126;37.876;2024-01-15T04:38:44;97713.69;;;-12.30;73.65
67842;BME280;54642;59.126;37.876;2024-01-15T04:41:14;97710.69;;;-12.22;73.82
67842;BME280;54642;59.126;37.876;2024-01-15T04:43:41;97706.47;;;-12.23;73.70
67842;BME280;54642;59.126;37.876;2024-01-15T04:46:07;97721.81;;;-12.16;73.68
67842;BME280;54642;59.126;37.876;2024-01-15T04:48:33;97683.59;;;-12.33;73.71
67842;BME280;54642;59.126;37.876;2024-01-15T04:50:59;97709.38;;;-12.14;73.80
67842;BME280;54642;59.126;37.876;2024-01-15T04:53:26;97699.13;;;-12.20;73.93
67842;BME280;54642;59.126;37.876;2024-01-15T04:55:52;97706.25;;;-12.10;73.97
67842;BME280;54642;59.126;37.876;2024-01-15T04:58:20;97699.41;;;-12.14;74.13
67842;BME280;54642;59.126;37.876;2024-01-15T05:00:46;97709.19;;;-12.01;74.07
67842;BME280;54642;59.126;37.876;2024-01-15T05:03:14;97670.94;;;-12.18;73.70
67842;BME280;54642;59.126;37.876;2024-01-15T05:05:40;97683.13;;;-12.06;73.88
67842;BME280;54642;59.126;37.876;2024-01-15T05:08:06;97690.13;;;-11.99;73.78
67842;BME280;54642;59.126;37.876;2024-01-15T05:10:32;97707.22;;;-11.89;73.81
67842;BME280;54642;59.126;37.876;2024-01-15T05:12:58;97703.06;;;-11.88;73.61
67842;BME280;54642;59.126;37.876;2024-01-15T05:15:23;97662.66;;;-11.99;73.88
67842;BME280;54642;59.126;37.876;2024-01-15T05:17:49;97698.53;;;-11.77;73.89
67842;BME280;54642;59.126;37.876;2024-01-15T05:20:18;97681.44;;;-11.88;73.99
67842;BME280;54642;59.126;37.876;2024-01-15T05:22:43;97698.69;;;-11.74;73.75
67842;BME280;54642;59.126;37.876;2024-01-15T05:25:09;97682.63;;;-11.79;73.77
67842;BME280;54642;59.126;37.876;2024-01-15T05:27:35;97693.16;;;-11.67;74.11
67842;BME280;54642;59.126;37.876;2024-01-15T05:30:01;97704.00;;;-11.66;73.84
67842;BME280;54642;59.126;37.876;2024-01-15T05:32:27;97693.31;;;-11.64;73.91
67842;BME280;54642;59.126;37.876;2024-01-15T05:34:52;97693.50;;;-11.59;73.89
67842;BME280;54642;59.126;37.876;2024-01-15T05:37:18;97691.81;;;-11.60;73.97
67842;BME280;54642;59.126;37.876;2024-01-15T05:39:44;97700.41;;;-11.54;74.01
67842;BME280;54642;59.126;37.876;2024-01-15T05:42:10;97681.97;;;-11.56;73.83
67842;BME280;54642;59.126;37.876;2024-01-15T05:44:36;97660.63;;;-11.68;73.65
67842;BME280;54642;59.126;37.876;2024-01-15T05:47:02;97679.56;;;-11.54;74.08
67842;BME280;54642;59.126;37.876;2024-01-15T05:49:29;97700.00;;;-11.43;73.93
67842;BME280;54642;59.126;37.876;2024-01-15T05:51:55;97698.31;;;-11.44;73.93
67842;BME280;54642;59.126;37.876;2024-01-15T05:54:21;97696.66;;;-11.44;73.67
67842;BME280;54642;59.126;37.876;2024-01-15T05:56:47;97694.09;;;-11.45;74.08
67842;BME280;54642;59.126;37.876;2024-01-15T05:59:13;97693.50;;;-11.40;74.09
67842;BME280;54642;59.126;37.876;2024-01-15T06:01:39;97694.34;;;-11.39;73.99
67842;BME280;54642;59.126;37.876;2024-01-15T06:04:04;97692.00;;;-11.36;74.00
67842;BME280;54642;59.126;37.876;2024-01-15T06:06:30;97678.88;;;-11.31;74.26
67842;BME280;54642;59.126;37.876;2024-01-15T06:08:56;97672.00;;;-11.36;74.23
67842;BME280;54642;59.126;37.876;2024-01-15T06:11:30;97679.81;;;-11.28;74.41
67842;BME280;54642;59.126;37.876;2024-01-15T06:13:56;97664.50;;;-11.36;74.25
67842;BME280;54642;59.126;37.876;2024-01-15T06:16:23;97671.59;;;-11.26;73.81
67842;BME280;54642;59.126;37.876;2024-01-15T06:18:49;97686.84;;;-11.20;73.99
67842;BME280;54642;59.126;37.876;2024-01-15T06:21:16;97661.66;;;-11.24;74.22
67842;BME280;54642;59.126;37.876;2024-01-15T06:23:42;97672.19;;;-11.12;74.15
67842;BME280;54642;59.126;37.876;2024-01-15T06:26:08;97655.75;;;-11.26;74.46
67842;BME280;54642;59.126;37.876;2024-01-15T06:28:33;97669.72;;;-11.10;74.17
67842;BME280;54642;59.126;37.876;2024-01-15T06:30:59;97685.66;;;-11.08;74.49
67842;BME280;54642;59.126;37.876;2024-01-15T06:33:27;97663.78;;;-11.13;74.11
67842;BME280;54642;59.126;37.876;2024-01-15T06:35:53;97636.00;;;-11.20;74.61
67842;BME280;54642;59.126;37.876;2024-01-15T06:38:19;97675.06;;;-11.03;74.43
67842;BME280;54642;59.126;37.876;2024-01-15T06:40:45;97676.03;;;-10.99;74.42
67842;BME280;54642;59.126;37.876;2024-01-15T06:43:13;97626.59;;;-11.26;74.42
67842;BME280;54642;59.126;37.876;2024-01-15T06:45:39;97676.25;;;-10.93;74.66
67842;BME280;54642;59.126;37.876;2024-01-15T06:48:06;97673.06;;;-10.90;74.57
67842;BME280;54642;59.126;37.876;2024-01-15T06:50:33;97674.09;;;-10.85;74.72
67842;BME280;54642;59.126;37.876;2024-01-15T06:52:59;97659.66;;;-10.91;74.76
67842;BME280;54642;59.126;37.876;2024-01-15T06:55:25;97669.94;;;-10.85;74.17
67842;BME280;54642;59.126;37.876;2024-01-15T06:57:52;97654.13;;;-10.84;74.34
67842;BME280;54642;59.126;37.876;2024-01-15T07:00:18;97664.31;;;-10.79;74.79
67842;BME280;54642;59.126;37.876;2024-01-15T07:02:45;97670.31;;;-10.76;74.29
67842;BME280;54642;59.126;37.876;2024-01-15T07:05:11;97669.56;;;-10.73;74.73
67842;BME280;54642;59.126;37.876;2024-01-15T07:07:37;97667.81;;;-10.76;74.87
67842;BME280;54642;59.126;37.876;2024-01-15T07:10:03;97622.69;;;-10.98;74.78
67842;BME280;54642;59.126;37.876;2024-01-15T07:12:32;97662.25;;;-10.68;74.51
67842;BME280;54642;59.126;37.876;2024-01-15T07:14:58;97652.38;;;-10.65;74.84
67842;BME280;54642;59.126;37.876;2024-01-15T07:17:24;97632.84;;;-10.74;74.91
67842;BME280;54642;59.126;37.876;2024-01-15T07:19:52;97649.13;;;-10.63;74.79
67842;BME280;54642;59.126;37.876;2024-01-15T07:22:18;97647.53;;;-10.61;74.96
67842;BME280;54642;59.126;37.876;2024-01-15T07:24:43;97650.22;;;-10.56;74.49
67842;BME280;54642;59.126;37.876;2024-01-15T07:27:09;97657.94;;;-10.50;74.78
67842;BME280;54642;59.126;37.876;2024-01-15T07:29:35;97620.47;;;-10.71;74.56
67842;BME280;54642;59.126;37.876;2024-01-15T07:32:04;97663.22;;;-10.44;74.82
67842;BME280;54642;59.126;37.876;2024-01-15T07:34:30;97630.91;;;-10.59;74.76
67842;BME280;54642;59.126;37.876;2024-01-15T07:36:57;97648.47;;;-10.36;74.52
67842;BME280;54642;59.126;37.876;2024-01-15T07:39:23;97658.44;;;-10.38;74.70
67842;BME280;54642;59.126;37.876;2024-01-15T07:41:50;97662.78;;;-10.33;74.53
67842;BME280;54642;59.126;37.876;2024-01-15T07:44:16;97656.69;;;-10.40;74.77
67842;BME280;54642;59.126;37.876;2024-01-15T07:46:46;97658.44;;;-10.38;74.53
67842;BME280;54642;59.126;37.876;2024-01-15T07:49:13;97647.00;;;-10.31;74.83
67842;BME280;54642;59.126;37.876;2024-01-15T07:51:39;97632.50;;;-10.40;75.15
67842;BME280;54642;59.126;37.876;2024-01-15T07:54:09;97640.31;;;-10.30;74.90
67842;BME280;54642;59.126;37.876;2024-01-15T07:56:59;97625.34;;;-10.29;74.60
67842;BME280;54642;59.126;37.876;2024-01-15T07:59:26;97582.72;;;-10.55;74.81
67842;BME280;54642;59.126;37.876;2024-01-15T08:01:52;97639.25;;;-10.14;74.50
67842;BME280;54642;59.126;37.876;2024-01-15T08:04:19;97642.81;;;-10.08;74.87
67842;BME280;54642;59.126;37.876;2024-01-15T08:06:45;97607.19;;;-10.23;74.70
67842;BME280;54642;59.126;37.876;2024-01-15T08:09:11;97654.91;;;-9.98;74.79
67842;BME280;54642;59.126;37.876;2024-01-15T08:11:42;97596.25;;;-10.25;74.65
67842;BME280;54642;59.126;37.876;2024-01-15T08:14:09;97640.91;;;-9.92;74.76
67842;BME280;54642;59.126;37.876;2024-01-15T08:16:38;97611.16;;;-10.06;74.65
67842;BME280;54642;59.126;37.876;2024-01-15T08:19:04;97641.91;;;-9.87;74.85
67842;BME280;54642;59.126;37.876;2024-01-15T08:21:31;97610.59;;;-9.99;74.59
67842;BME280;54642;59.126;37.876;2024-01-15T08:24:01;97643.94;;;-9.77;74.76
67842;BME280;54642;59.126;37.876;2024-01-15T08:26:28;97644.78;;;-9.77;74.75
67842;BME280;54642;59.126;37.876;2024-01-15T08:28:54;97644.00;;;-9.75;74.58
67842;BME280;54642;59.126;37.876;2024-01-15T08:31:20;97639.69;;;-9.80;74.89
67842;BME280;54642;59.126;37.876;2024-01-15T08:33:46;97652.38;;;-9.75;74.65
67842;BME280;54642;59.126;37.876;2024-01-15T08:36:12;97645.81;;;-9.71;74.81
67842;BME280;54642;59.126;37.876;2024-01-15T08:38:38;97640.72;;;-9.73;74.94
67842;BME280;54642;59.126;37.876;2024-01-15T08:41:05;97650.19;;;-9.66;74.76
67842;BME280;54642;59.126;37.876;2024-01-15T08:43:31;97643.47;;;-9.67;74.89
67842;BME280;54642;59.126;37.876;2024-01-15T08:45:57;97637.75;;;-9.63;75.30
67842;BME280;54642;59.126;37.876;2024-01-15T08:48:25;97615.91;;;-9.67;75.36
67842;BME280;54642;59.126;37.876;2024-01-15T08:50:53;97630.91;;;-9.44;75.14
67842;BME280;54642;59.126;37.876;2024-01-15T08:53:20;97614.50;;;-9.34;75.33
67842;BME280;54642;59.126;37.876;2024-01-15T08:55:46;97634.63;;;-9.07;75.11
67842;BME280;54642;59.126;37.876;2024-01-15T08:58:12;97639.22;;;-8.95;74.97
67842;BME280;54642;59.126;37.876;2024-01-15T09:00:37;97630.19;;;-8.90;75.06
67842;BME280;54642;59.126;37.876;2024-01-15T09:03:04;97645.47;;;-8.83;75.21
67842;BME280;54642;59.126;37.876;2024-01-15T09:05:30;97620.44;;;-8.81;75.33
67842;BME280;54642;59.126;37.876;2024-01-15T09:07:56;97625.91;;;-8.66;75.23
67842;BME280;54642;59.126;37.876;2024-01-15T09:10:22;97622.66;;;-8.63;75.31
67842;BME280;54642;59.126;37.876;2024-01-15T09:12:49;97620.28;;;-8.58;74.85
67842;BME280;54642;59.126;37.876;2024-01-15T09:15:15;97601.59;;;-8.68;75.14
67842;BME280;54642;59.126;37.876;2024-01-15T09:17:41;97618.91;;;-8.49;75.31
67842;BME280;54642;59.126;37.876;2024-01-15T09:20:08;97596.13;;;-8.55;75.05
67842;BME280;54642;59.126;37.876;2024-01-15T09:22:34;97617.34;;;-8.45;75.25
67842;BME280;54642;59.126;37.876;2024-01-15T09:25:00;97585.91;;;-8.61;75.24
67842;BME280;54642;59.126;37.876;2024-01-15T09:27:26;97614.28;;;-8.35;75.06
67842;BME280;54642;59.126;37.876;2024-01-15T09:29:52;97610.22;;;-8.31;75.25
67842;BME280;54642;59.126;37.876;2024-01-15T09:32:18;97615.59;;;-8.19;75.32
67842;BME280;54642;59.126;37.876;2024-01-15T09:34:46;97593.47;;;-8.31;75.35
67842;BME280;54642;59.126;37.876;2024-01-15T09:37:13;97615.63;;;-8.17;75.03
67842;BME280;54642;59.126;37.876;2024-01-15T09:39:40;97592.84;;;-8.24;75.06
67842;BME280;54642;59.126;37.876;2024-01-15T09:42:06;97599.06;;;-8.11;74.69
67842;BME280;54642;59.126;37.876;2024-01-15T09:44:32;97609.31;;;-8.05;75.04
67842;BME280;54642;59.126;37.876;2024-01-15T09:46:58;97598.38;;;-8.05;74.96
67842;BME280;54642;59.126;37.876;2024-01-15T09:49:24;97599.13;;;-8.09;74.92
67842;BME280;54642;59.126;37.876;2024-01-15T09:51:51;97605.25;;;-7.99;74.91
67842;BME280;54642;59.126;37.876;2024-01-15T09:54:17;97603.66;;;-7.97;75.07
67842;BME280;54642;59.126;37.876;2024-01-15T09:56:47;97588.28;;;-8.07;74.63
67842;BME280;54642;59.126;37.876;2024-01-15T09:59:16;97604.94;;;-7.81;74.84
67842;BME280;54642;59.126;37.876;2024-01-15T10:01:44;97599.03;;;-7.82;74.65
67842;BME280;54642;59.126;37.876;2024-01-15T10:04:11;97593.16;;;-7.82;74.91
67842;BME280;54642;59.126;37.876;2024-01-15T10:06:46;97599.94;;;-7.80;74.66
67842;BME280;54642;59.126;37.876;2024-01-15T10:09:13;97586.47;;;-7.82;75.22
67842;BME280;54642;59.126;37.876;2024-01-15T10:11:43;97566.88;;;-7.94;74.82
67842;BME280;54642;59.126;37.876;2024-01-15T10:14:09;97599.19;;;-7.77;74.90
67842;BME280;54642;59.126;37.876;2024-01-15T10:16:41;97607.81;;;-7.68;75.14
67842;BME280;54642;59.126;37.876;2024-01-15T10:19:08;97583.16;;;-7.81;75.06
67842;BME280;54642;59.126;37.876;2024-01-15T10:21:35;97579.84;;;-7.78;74.96
67842;BME280;54642;59.126;37.876;2024-01-15T10:24:02;97535.94;;;-7.91;74.78
67842;BME280;54642;59.126;37.876;2024-01-15T10:26:28;97598.72;;;-7.62;75.01
67842;BME280;54642;59.126;37.876;2024-01-15T10:28:54;97587.94;;;-7.58;74.92
67842;BME280;54642;59.126;37.876;2024-01-15T10:31:21;97573.69;;;-7.59;74.99
67842;BME280;54642;59.126;37.876;2024-01-15T10:33:50;97595.75;;;-7.49;74.87
67842;BME280;54642;59.126;37.876;2024-01-15T10:36:16;97560.03;;;-7.68;75.25
67842;BME280;54642;59.126;37.876;2024-01-15T10:38:46;97589.09;;;-7.47;74.93
67842;BME280;54642;59.126;37.876;2024-01-15T10:41:12;97581.69;;;-7.41;74.87
67842;BME280;54642;59.126;37.876;2024-01-15T10:43:38;97576.00;;;-7.34;74.84
67842;BME280;54642;59.126;37.876;2024-01-15T10:46:06;97570.66;;;-7.46;74.94
67842;BME280;54642;59.126;37.876;2024-01-15T10:48:33;97594.53;;;-7.30;74.74
67842;BME280;54642;59.126;37.876;2024-01-15T10:51:01;97586.94;;;-7.32;74.77
67842;BME280;54642;59.126;37.876;2024-01-15T10:53:38;97592.13;;;-7.27;74.81
67842;BME280;54642;59.126;37.876;2024-01-15T10:56:05;97593.84;;;-7.26;74.77
67842;BME280;54642;59.126;37.876;2024-01-15T10:58:33;97579.50;;;-7.29;74.90
67842;BME280;54642;59.126;37.876;2024-01-15T11:01:01;97588.91;;;-7.21;74.69
67842;BME280;54642;59.126;37.876;2024-01-15T11:03:28;97531.25;;;-7.47;74.74
67842;BME280;54642;59.126;37.876;2024-01-15T11:05:54;97566.28;;;-7.20;74.75
67842;BME280;54642;59.126;37.876;2024-01-15T11:08:20;97561.22;;;-7.21;74.86
67842;BME280;54642;59.126;37.876;2024-01-15T11:10:48;97579.13;;;-7.09;74.79
67842;BME280;54642;59.126;37.876;2024-01-15T11:16:02;97556.34;;;-7.15;74.68
67842;BME280;54642;59.126;37.876;2024-01-15T11:18:35;97581.00;;;-7.02;74.79
67842;BME280;54642;59.126;37.876;2024-01-15T11:21:22;97581.06;;;-6.99;74.69
67842;BME280;54642;59.126;37.876;2024-01-15T11:23:56;97569.97;;;-7.07;74.74
67842;BME280;54642;59.126;37.876;2024-01-15T11:29:07;97577.06;;;-6.91;74.79
67842;BME280;54642;59.126;37.876;2024-01-15T11:34:10;97588.94;;;-6.86;74.99
67842;BME280;54642;59.126;37.876;2024-01-15T11:41:59;97523.81;;;-7.07;74.58
67842;BME280;54642;59.126;37.876;2024-01-15T11:44:26;97560.56;;;-6.79;74.77
67842;BME280;54642;59.126;37.876;2024-01-15T11:47:02;97558.16;;;-6.73;74.83
67842;BME280;54642;59.126;37.876;2024-01-15T11:52:17;97534.28;;;-6.89;74.66
67842;BME280;54642;59.126;37.876;2024-01-15T11:54:51;97543.72;;;-6.80;74.82
67842;BME280;54642;59.126;37.876;2024-01-15T12:00:06;97571.97;;;-6.57;74.72
67842;BME280;54642;59.126;37.876;2024-01-15T12:02:39;97572.09;;;-6.51;74.72
67842;BME280;54642;59.126;37.876;2024-01-15T12:05:06;97564.53;;;-6.53;74.74
67842;BME280;54642;59.126;37.876;2024-01-15T12:07:33;97564.56;;;-6.49;74.59
67842;BME280;54642;59.126;37.876;2024-01-15T12:09:59;97583.16;;;-6.44;75.02
67842;BME280;54642;59.126;37.876;2024-01-15T12:15:09;97583.31;;;-6.38;74.83
67842;BME280;54642;59.126;37.876;2024-01-15T12:17:35;97519.72;;;-6.66;74.86
67842;BME280;54642;59.126;37.876;2024-01-15T12:20:05;97544.38;;;-6.53;74.72
67842;BME280;54642;59.126;37.876;2024-01-15T12:22:31;97556.31;;;-6.42;74.60
67842;BME280;54642;59.126;37.876;2024-01-15T12:24:57;97566.59;;;-6.33;74.66
67842;BME280;54642;59.126;37.876;2024-01-15T12:27:24;97580.09;;;-6.31;74.86
67842;BME280;54642;59.126;37.876;2024-01-15T12:29:50;97523.25;;;-6.58;74.78
67842;BME280;54642;59.126;37.876;2024-01-15T12:32:16;97566.66;;;-6.30;74.76
67842;BME280;54642;59.126;37.876;2024-01-15T12:34:43;97569.34;;;-6.24;74.76
67842;BME280;54642;59.126;37.876;2024-01-15T12:37:08;97579.28;;;-6.30;74.81
67842;BME280;54642;59.126;37.876;2024-01-15T12:39:35;97545.56;;;-6.35;75.06
67842;BME280;54642;59.126;37.876;2024-01-15T12:42:01;97580.41;;;-6.16;74.87
67842;BME280;54642;59.126;37.876;2024-01-15T12:44:28;97549.03;;;-6.30;74.88
67842;BME280;54642;59.126;37.876;2024-01-15T12:46:54;97556.75;;;-6.24;74.98
67842;BME280;54642;59.126;37.876;2024-01-15T12:49:21;97548.31;;;-6.24;75.08
67842;BME280;54642;59.126;37.876;2024-01-15T12:51:54;97557.94;;;-6.05;74.78
67842;BME280;54642;59.126;37.876;2024-01-15T12:54:20;97550.25;;;-6.13;74.94
67842;BME280;54642;59.126;37.876;2024-01-15T12:56:47;97556.13;;;-6.12;74.86
67842;BME280;54642;59.126;37.876;2024-01-15T12:59:13;97536.63;;;-6.22;75.30
67842;BME280;54642;59.126;37.876;2024-01-15T13:01:39;97553.56;;;-6.14;75.26